Airfield :
LOGIN :

Register | Disclaimer

   EN    FR    IT 

 










Legend :    VFR   Marginal VFR   IFR   Intensive IFR   Very Intensive IFR
Visi :
Ceiling :
>= 8 km
>= 3000ft
5 to 8 km
1000 to 3000 ft
1500m to 5 km
500 to 1000 ft
800 to 1500m
200 to 500 ft
< 800m
< 200 ft
Symbols :   Thunderstorms  Fog  Heavy snow  Heavy precipitations  Wind > 20 kt
SIGMETs :     Misc.  Thunderstorms  Icing  Turbulence  Mountain Waves  Volcanic Ashes







- Airport Elevation : 2001 ft
- IATA code : MAD


LEMD - Madrid

CURRENT METAR :
  • 160500Z 34003KT CAVOK 01/M01 Q1026 NOSIG

EXPIRED METARs :
  • 160430Z 33004KT CAVOK 01/M00 Q1026 NOSIG
  • 160400Z 34003KT 320V020 CAVOK 01/00 Q1026 NOSIG
  • 160330Z 34003KT CAVOK 02/00 Q1026 NOSIG
  • 160300Z 33003KT CAVOK 02/00 Q1026 NOSIG
  • 160230Z 33003KT CAVOK 02/00 Q1027 NOSIG

TAF TAF LEMD
Valid from the 16 at 06:00 until the 17 at 12:00 UTC


160500Z 1606/1712 VRB05KT CAVOK TX18/1616Z TNM02/1707Z
BECMG 1611/1613 14008G18KT
BECMG 1618/1620 VRB05KT
No reported NOTAMs for that airfield.



MET'MAP, your aeronautical weather chart ! - Copyright ORBIFLY December 2007 - Disclaimer

ORBIFLY MET'MAP TEAM :

Programming & Development : Alexandra Zaïnal
Concept & Development : Baudouin d'Aumeries
Co-Development & Prog : Marc-Olivier Méhu
Technical & hardware support : Manuel Goepfert

Contact : metmap@orbifly.com




SOURCES & CREDITS :

   NOAA